sensor_id;sensor_type;location;lat;lon;timestamp;pressure;altitude;pressure_sealevel;temperature;humidity
6530;BME280;3298;42.688;23.366;2023-02-04T00:02:21;51778.50;;;-145.06;77.45
6530;BME280;3298;42.688;23.366;2023-02-04T00:04:52;51782.59;;;-145.06;77.70
6530;BME280;3298;42.688;23.366;2023-02-04T00:07:18;51801.00;;;-145.06;78.04
6530;BME280;3298;42.688;23.366;2023-02-04T00:09:45;51782.59;;;-145.06;78.44
6530;BME280;3298;42.688;23.366;2023-02-04T00:12:14;51803.06;;;-145.06;78.93
6530;BME280;3298;42.688;23.366;2023-02-04T00:14:40;51811.25;;;-145.06;78.79
6530;BME280;3298;42.688;23.366;2023-02-04T00:17:07;51782.59;;;-145.06;79.13
6530;BME280;3298;42.688;23.366;2023-02-04T00:19:37;51774.41;;;-145.06;78.30
6530;BME280;3298;42.688;23.366;2023-02-04T00:22:05;51776.44;;;-145.06;77.88
6530;BME280;3298;42.688;23.366;2023-02-04T00:24:32;51770.31;;;-145.06;77.90
6530;BME280;3298;42.688;23.366;2023-02-04T00:26:59;51778.50;;;-145.06;79.30
6530;BME280;3298;42.688;23.366;2023-02-04T00:29:26;51778.50;;;-145.06;77.94
6530;BME280;3298;42.688;23.366;2023-02-04T00:31:52;51798.97;;;-145.06;77.63
6530;BME280;3298;42.688;23.366;2023-02-04T00:34:19;51766.22;;;-145.06;78.19
6530;BME280;3298;42.688;23.366;2023-02-04T00:36:46;51821.47;;;-145.06;78.58
6530;BME280;3298;42.688;23.366;2023-02-04T00:39:14;51776.44;;;-145.06;78.22
6530;BME280;3298;42.688;23.366;2023-02-04T00:41:41;51811.25;;;-145.06;78.43
6530;BME280;3298;42.688;23.366;2023-02-04T00:44:08;51776.44;;;-145.06;79.18
6530;BME280;3298;42.688;23.366;2023-02-04T00:46:35;51839.91;;;-145.06;79.42
6530;BME280;3298;42.688;23.366;2023-02-04T00:49:01;51776.44;;;-145.06;79.34
6530;BME280;3298;42.688;23.366;2023-02-04T00:51:30;51782.59;;;-145.06;78.21
6530;BME280;3298;42.688;23.366;2023-02-04T00:53:57;51778.50;;;-145.06;79.08
6530;BME280;3298;42.688;23.366;2023-02-04T00:56:25;51788.72;;;-145.06;79.53
6530;BME280;3298;42.688;23.366;2023-02-04T00:58:52;51778.50;;;-145.06;79.36
6530;BME280;3298;42.688;23.366;2023-02-04T01:01:19;51778.50;;;-145.06;79.51
6530;BME280;3298;42.688;23.366;2023-02-04T01:03:46;51803.06;;;-145.06;79.73
6530;BME280;3298;42.688;23.366;2023-02-04T01:06:12;51774.41;;;-145.06;77.46
6530;BME280;3298;42.688;23.366;2023-02-04T01:08:39;51758.03;;;-145.06;77.46
6530;BME280;3298;42.688;23.366;2023-02-04T01:11:06;51796.91;;;-145.06;77.31
6530;BME280;3298;42.688;23.366;2023-02-04T01:13:34;51805.09;;;-145.06;78.43
6530;BME280;3298;42.688;23.366;2023-02-04T01:16:01;51760.06;;;-145.06;75.83
6530;BME280;3298;42.688;23.366;2023-02-04T01:18:27;51778.50;;;-145.06;77.43
6530;BME280;3298;42.688;23.366;2023-02-04T01:20:54;51782.59;;;-145.06;77.30
6530;BME280;3298;42.688;23.366;2023-02-04T01:23:21;51755.97;;;-145.06;77.63
6530;BME280;3298;42.688;23.366;2023-02-04T01:25:48;51778.50;;;-145.06;77.75
6530;BME280;3298;42.688;23.366;2023-02-04T01:28:14;51786.69;;;-145.06;78.60
6530;BME280;3298;42.688;23.366;2023-02-04T01:30:43;51784.63;;;-145.06;78.25
6530;BME280;3298;42.688;23.366;2023-02-04T01:33:09;51768.25;;;-145.06;77.70
6530;BME280;3298;42.688;23.366;2023-02-04T01:35:36;51753.94;;;-145.06;77.88
6530;BME280;3298;42.688;23.366;2023-02-04T01:38:03;51784.63;;;-145.06;78.04
6530;BME280;3298;42.688;23.366;2023-02-04T01:40:31;51798.97;;;-145.06;77.61
6530;BME280;3298;42.688;23.366;2023-02-04T01:42:58;51760.06;;;-145.06;77.36
6530;BME280;3298;42.688;23.366;2023-02-04T01:45:25;51819.44;;;-145.06;76.63
6530;BME280;3298;42.688;23.366;2023-02-04T01:47:53;51778.50;;;-145.06;75.96
6530;BME280;3298;42.688;23.366;2023-02-04T01:50:21;51770.31;;;-145.06;75.25
6530;BME280;3298;42.688;23.366;2023-02-04T01:52:47;51766.22;;;-145.06;75.87
6530;BME280;3298;42.688;23.366;2023-02-04T01:55:16;51772.34;;;-145.06;75.65
6530;BME280;3298;42.688;23.366;2023-02-04T01:57:44;51764.16;;;-145.06;76.44
6530;BME280;3298;42.688;23.366;2023-02-04T02:00:15;51786.69;;;-145.06;77.27
6530;BME280;3298;42.688;23.366;2023-02-04T02:02:44;51770.31;;;-145.06;76.13
6530;BME280;3298;42.688;23.366;2023-02-04T02:05:17;51741.66;;;-145.06;75.84
6530;BME280;3298;42.688;23.366;2023-02-04T02:07:45;51794.88;;;-145.06;76.14
6530;BME280;3298;42.688;23.366;2023-02-04T02:10:12;51778.50;;;-145.06;76.41
6530;BME280;3298;42.688;23.366;2023-02-04T02:12:41;51778.50;;;-145.06;77.42
6530;BME280;3298;42.688;23.366;2023-02-04T02:15:09;51758.03;;;-145.06;77.14
6530;BME280;3298;42.688;23.366;2023-02-04T02:17:38;51764.16;;;-145.06;77.28
6530;BME280;3298;42.688;23.366;2023-02-04T02:20:05;51792.81;;;-145.06;78.13
6530;BME280;3298;42.688;23.366;2023-02-04T02:22:38;51774.41;;;-145.06;77.02
6530;BME280;3298;42.688;23.366;2023-02-04T02:25:12;51762.13;;;-145.06;77.58
6530;BME280;3298;42.688;23.366;2023-02-04T02:27:39;51788.72;;;-145.06;76.43
6530;BME280;3298;42.688;23.366;2023-02-04T02:30:07;51774.41;;;-145.06;76.47
6530;BME280;3298;42.688;23.366;2023-02-04T02:32:35;51790.78;;;-145.06;76.30
6530;BME280;3298;42.688;23.366;2023-02-04T02:35:04;51788.72;;;-145.06;76.18
6530;BME280;3298;42.688;23.366;2023-02-04T02:37:31;51762.13;;;-145.06;76.34
6530;BME280;3298;42.688;23.366;2023-02-04T02:39:58;51784.63;;;-145.06;76.52
6530;BME280;3298;42.688;23.366;2023-02-04T02:42:26;51741.66;;;-145.06;75.05
6530;BME280;3298;42.688;23.366;2023-02-04T02:44:54;51786.69;;;-145.06;75.64
6530;BME280;3298;42.688;23.366;2023-02-04T02:47:21;51766.22;;;-145.06;75.96
6530;BME280;3298;42.688;23.366;2023-02-04T02:49:50;51798.97;;;-145.06;75.00
6530;BME280;3298;42.688;23.366;2023-02-04T02:52:19;51743.69;;;-145.06;75.13
6530;BME280;3298;42.688;23.366;2023-02-04T02:54:47;51778.50;;;-145.06;75.27
6530;BME280;3298;42.688;23.366;2023-02-04T02:57:16;51770.31;;;-145.06;75.50
6530;BME280;3298;42.688;23.366;2023-02-04T02:59:46;51778.50;;;-145.06;75.41
6530;BME280;3298;42.688;23.366;2023-02-04T03:02:15;51790.78;;;-145.06;74.81
6530;BME280;3298;42.688;23.366;2023-02-04T03:04:44;51796.91;;;-145.06;75.03
6530;BME280;3298;42.688;23.366;2023-02-04T03:07:15;51772.34;;;-145.06;74.22
6530;BME280;3298;42.688;23.366;2023-02-04T03:09:43;51790.78;;;-145.06;73.75
6530;BME280;3298;42.688;23.366;2023-02-04T03:12:10;51778.50;;;-145.06;74.17
6530;BME280;3298;42.688;23.366;2023-02-04T03:14:37;51764.16;;;-145.06;73.56
6530;BME280;3298;42.688;23.366;2023-02-04T03:17:06;51770.31;;;-145.06;74.70
6530;BME280;3298;42.688;23.366;2023-02-04T03:19:35;51760.06;;;-145.06;74.16
6530;BME280;3298;42.688;23.366;2023-02-04T03:22:03;51770.31;;;-145.06;73.75
6530;BME280;3298;42.688;23.366;2023-02-04T03:24:31;51762.13;;;-145.06;73.10
6530;BME280;3298;42.688;23.366;2023-02-04T03:26:58;51782.59;;;-145.06;73.42
6530;BME280;3298;42.688;23.366;2023-02-04T03:29:25;51805.09;;;-145.06;72.63
6530;BME280;3298;42.688;23.366;2023-02-04T03:31:52;51776.44;;;-145.06;72.24
6530;BME280;3298;42.688;23.366;2023-02-04T03:34:21;51778.50;;;-145.06;72.85
6530;BME280;3298;42.688;23.366;2023-02-04T03:36:48;51796.91;;;-145.06;72.64
6530;BME280;3298;42.688;23.366;2023-02-04T03:39:14;51751.88;;;-145.06;72.11
6530;BME280;3298;42.688;23.366;2023-02-04T03:41:41;51762.13;;;-145.06;72.40
6530;BME280;3298;42.688;23.366;2023-02-04T03:44:08;51770.31;;;-145.06;72.65
6530;BME280;3298;42.688;23.366;2023-02-04T03:46:35;51778.50;;;-145.06;72.70
6530;BME280;3298;42.688;23.366;2023-02-04T03:49:01;51796.91;;;-145.06;72.63
6530;BME280;3298;42.688;23.366;2023-02-04T03:51:30;51782.59;;;-145.06;72.81
6530;BME280;3298;42.688;23.366;2023-02-04T03:53:56;51792.81;;;-145.06;72.40
6530;BME280;3298;42.688;23.366;2023-02-04T03:56:23;51764.16;;;-145.06;72.20
6530;BME280;3298;42.688;23.366;2023-02-04T03:58:50;51776.44;;;-145.06;71.10
6530;BME280;3298;42.688;23.366;2023-02-04T04:01:17;51760.06;;;-145.06;71.87
6530;BME280;3298;42.688;23.366;2023-02-04T04:03:44;51782.59;;;-145.06;70.91
6530;BME280;3298;42.688;23.366;2023-02-04T04:06:10;51782.59;;;-145.06;71.93
6530;BME280;3298;42.688;23.366;2023-02-04T04:08:38;51784.63;;;-145.06;71.03
6530;BME280;3298;42.688;23.366;2023-02-04T04:11:05;51753.94;;;-145.06;71.13
6530;BME280;3298;42.688;23.366;2023-02-04T04:13:32;51766.22;;;-145.06;71.76
6530;BME280;3298;42.688;23.366;2023-02-04T04:15:59;51760.06;;;-145.06;71.80
6530;BME280;3298;42.688;23.366;2023-02-04T04:18:27;51798.97;;;-145.06;71.85
6530;BME280;3298;42.688;23.366;2023-02-04T04:20:54;51776.44;;;-145.06;72.06
6530;BME280;3298;42.688;23.366;2023-02-04T04:23:21;51747.78;;;-145.06;72.50
6530;BME280;3298;42.688;23.366;2023-02-04T04:25:49;51782.59;;;-145.06;72.48
6530;BME280;3298;42.688;23.366;2023-02-04T04:28:16;51764.16;;;-145.06;73.17
6530;BME280;3298;42.688;23.366;2023-02-04T04:30:43;51751.88;;;-145.06;73.64
6530;BME280;3298;42.688;23.366;2023-02-04T04:33:10;51753.94;;;-145.06;73.95
6530;BME280;3298;42.688;23.366;2023-02-04T04:35:37;51758.03;;;-145.06;73.64
6530;BME280;3298;42.688;23.366;2023-02-04T04:38:03;51768.25;;;-145.06;74.40
6530;BME280;3298;42.688;23.366;2023-02-04T04:40:30;51749.84;;;-145.06;73.59
6530;BME280;3298;42.688;23.366;2023-02-04T04:42:58;51778.50;;;-145.06;74.74
6530;BME280;3298;42.688;23.366;2023-02-04T04:45:25;51772.34;;;-145.06;75.65
6530;BME280;3298;42.688;23.366;2023-02-04T04:47:52;51770.31;;;-145.06;75.31
6530;BME280;3298;42.688;23.366;2023-02-04T04:50:19;51768.25;;;-145.06;75.19
6530;BME280;3298;42.688;23.366;2023-02-04T04:52:45;51768.25;;;-145.06;75.61
6530;BME280;3298;42.688;23.366;2023-02-04T04:55:12;51772.34;;;-145.06;76.52
6530;BME280;3298;42.688;23.366;2023-02-04T04:57:39;51778.50;;;-145.06;76.48
6530;BME280;3298;42.688;23.366;2023-02-04T05:00:14;51798.97;;;-145.06;76.94
6530;BME280;3298;42.688;23.366;2023-02-04T05:02:41;51770.31;;;-145.06;77.12
6530;BME280;3298;42.688;23.366;2023-02-04T05:05:08;51792.81;;;-145.06;77.77
6530;BME280;3298;42.688;23.366;2023-02-04T05:07:35;51798.97;;;-145.06;79.58
6530;BME280;3298;42.688;23.366;2023-02-04T05:10:03;51803.06;;;-145.06;80.29
6530;BME280;3298;42.688;23.366;2023-02-04T05:12:30;51786.69;;;-145.06;81.85
6530;BME280;3298;42.688;23.366;2023-02-04T05:14:57;51758.03;;;-145.06;82.71
6530;BME280;3298;42.688;23.366;2023-02-04T05:17:25;51798.97;;;-145.06;82.53
6530;BME280;3298;42.688;23.366;2023-02-04T05:19:52;51809.19;;;-145.06;83.77
6530;BME280;3298;42.688;23.366;2023-02-04T05:22:19;51749.84;;;-145.06;83.79
6530;BME280;3298;42.688;23.366;2023-02-04T05:24:45;51801.00;;;-145.06;82.08
6530;BME280;3298;42.688;23.366;2023-02-04T05:27:12;51805.09;;;-145.06;77.07
6530;BME280;3298;42.688;23.366;2023-02-04T05:29:39;51770.31;;;-145.06;74.59
6530;BME280;3298;42.688;23.366;2023-02-04T05:32:06;51778.50;;;-145.06;71.79
6530;BME280;3298;42.688;23.366;2023-02-04T05:34:34;51782.59;;;-145.06;71.76
6530;BME280;3298;42.688;23.366;2023-02-04T05:37:01;51766.22;;;-145.06;71.18
6530;BME280;3298;42.688;23.366;2023-02-04T05:39:28;51784.63;;;-145.06;70.32
6530;BME280;3298;42.688;23.366;2023-02-04T05:41:55;51758.03;;;-145.06;70.29
6530;BME280;3298;42.688;23.366;2023-02-04T05:44:21;51786.69;;;-145.06;70.14
6530;BME280;3298;42.688;23.366;2023-02-04T05:46:48;51786.69;;;-145.06;70.08
6530;BME280;3298;42.688;23.366;2023-02-04T05:49:15;51753.94;;;-145.06;68.87
6530;BME280;3298;42.688;23.366;2023-02-04T05:51:43;51768.25;;;-145.06;68.79
6530;BME280;3298;42.688;23.366;2023-02-04T05:54:10;51762.13;;;-145.06;69.15
6530;BME280;3298;42.688;23.366;2023-02-04T05:56:43;51764.16;;;-145.06;68.82
6530;BME280;3298;42.688;23.366;2023-02-04T05:59:10;51774.41;;;-145.06;68.46
6530;BME280;3298;42.688;23.366;2023-02-04T06:01:37;51772.34;;;-145.06;68.40
6530;BME280;3298;42.688;23.366;2023-02-04T06:04:04;51790.78;;;-145.06;68.00
6530;BME280;3298;42.688;23.366;2023-02-04T06:06:30;51794.88;;;-145.06;67.41
6530;BME280;3298;42.688;23.366;2023-02-04T06:08:59;51782.59;;;-145.06;66.87
6530;BME280;3298;42.688;23.366;2023-02-04T06:11:26;51764.16;;;-145.06;66.68
6530;BME280;3298;42.688;23.366;2023-02-04T06:13:53;51762.13;;;-145.06;66.02
6530;BME280;3298;42.688;23.366;2023-02-04T06:16:20;51766.22;;;-145.06;65.36
6530;BME280;3298;42.688;23.366;2023-02-04T06:18:47;51780.53;;;-145.06;65.21
6530;BME280;3298;42.688;23.366;2023-02-04T06:21:14;51770.31;;;-145.06;65.02
6530;BME280;3298;42.688;23.366;2023-02-04T06:23:40;51741.66;;;-145.06;64.25
6530;BME280;3298;42.688;23.366;2023-02-04T06:26:08;51798.97;;;-145.06;64.46
6530;BME280;3298;42.688;23.366;2023-02-04T06:28:35;51755.97;;;-145.06;63.83
6530;BME280;3298;42.688;23.366;2023-02-04T06:31:02;51747.78;;;-145.06;63.50
6530;BME280;3298;42.688;23.366;2023-02-04T06:33:29;51766.22;;;-145.06;63.24
6530;BME280;3298;42.688;23.366;2023-02-04T06:35:56;51792.81;;;-145.06;62.98
6530;BME280;3298;42.688;23.366;2023-02-04T06:38:23;51766.22;;;-145.06;62.78
6530;BME280;3298;42.688;23.366;2023-02-04T06:40:49;51758.03;;;-145.06;62.53
6530;BME280;3298;42.688;23.366;2023-02-04T06:43:19;51760.06;;;-145.06;62.26
6530;BME280;3298;42.688;23.366;2023-02-04T06:45:46;51755.97;;;-145.06;62.38
6530;BME280;3298;42.688;23.366;2023-02-04T06:48:15;51737.56;;;-145.06;62.28
6530;BME280;3298;42.688;23.366;2023-02-04T06:50:43;51741.66;;;-145.06;61.52
6530;BME280;3298;42.688;23.366;2023-02-04T06:53:09;51768.25;;;-145.06;61.63
6530;BME280;3298;42.688;23.366;2023-02-04T06:55:36;51770.31;;;-145.06;61.21
6530;BME280;3298;42.688;23.366;2023-02-04T06:58:03;51743.69;;;-145.06;61.29
6530;BME280;3298;42.688;23.366;2023-02-04T07:00:31;51768.25;;;-145.06;60.68
6530;BME280;3298;42.688;23.366;2023-02-04T07:02:58;51778.50;;;-145.06;60.10
6530;BME280;3298;42.688;23.366;2023-02-04T07:05:25;51778.50;;;-145.06;59.80
6530;BME280;3298;42.688;23.366;2023-02-04T07:07:51;51745.75;;;-145.06;59.58
6530;BME280;3298;42.688;23.366;2023-02-04T07:10:18;51762.13;;;-145.06;58.76
6530;BME280;3298;42.688;23.366;2023-02-04T07:12:46;51770.31;;;-145.06;58.80
6530;BME280;3298;42.688;23.366;2023-02-04T07:15:13;51768.25;;;-145.06;58.19
6530;BME280;3298;42.688;23.366;2023-02-04T07:17:41;51762.13;;;-145.06;58.10
6530;BME280;3298;42.688;23.366;2023-02-04T07:20:09;51762.13;;;-145.06;58.25
6530;BME280;3298;42.688;23.366;2023-02-04T07:22:36;51786.69;;;-145.06;57.83
6530;BME280;3298;42.688;23.366;2023-02-04T07:25:03;51758.03;;;-145.06;57.73
6530;BME280;3298;42.688;23.366;2023-02-04T07:27:30;51768.25;;;-145.06;57.32
6530;BME280;3298;42.688;23.366;2023-02-04T07:29:56;51760.06;;;-145.06;57.53
6530;BME280;3298;42.688;23.366;2023-02-04T07:32:23;51747.78;;;-145.06;56.89
6530;BME280;3298;42.688;23.366;2023-02-04T07:34:53;51772.34;;;-145.06;57.09
6530;BME280;3298;42.688;23.366;2023-02-04T07:37:20;51753.94;;;-145.06;55.90
6530;BME280;3298;42.688;23.366;2023-02-04T07:39:48;51778.50;;;-145.06;56.06
6530;BME280;3298;42.688;23.366;2023-02-04T07:42:14;51790.78;;;-145.06;55.25
6530;BME280;3298;42.688;23.366;2023-02-04T07:44:41;51758.03;;;-145.06;54.67
6530;BME280;3298;42.688;23.366;2023-02-04T07:47:08;51755.97;;;-145.06;54.54
6530;BME280;3298;42.688;23.366;2023-02-04T07:49:36;51764.16;;;-145.06;54.18
6530;BME280;3298;42.688;23.366;2023-02-04T07:52:04;51753.94;;;-145.06;54.05
6530;BME280;3298;42.688;23.366;2023-02-04T07:54:31;51751.88;;;-145.06;53.57
6530;BME280;3298;42.688;23.366;2023-02-04T07:56:58;51784.63;;;-145.06;53.18
6530;BME280;3298;42.688;23.366;2023-02-04T07:59:24;51772.34;;;-145.06;53.27
6530;BME280;3298;42.688;23.366;2023-02-04T08:01:51;51751.88;;;-145.06;52.88
6530;BME280;3298;42.688;23.366;2023-02-04T08:04:18;51794.88;;;-145.06;53.04
6530;BME280;3298;42.688;23.366;2023-02-04T08:06:45;51782.59;;;-145.06;52.50
6530;BME280;3298;42.688;23.366;2023-02-04T08:09:13;51751.88;;;-145.06;52.90
6530;BME280;3298;42.688;23.366;2023-02-04T08:11:39;51743.69;;;-145.06;53.34
6530;BME280;3298;42.688;23.366;2023-02-04T08:14:06;51760.06;;;-145.06;53.81
6530;BME280;3298;42.688;23.366;2023-02-04T08:16:33;51776.44;;;-145.06;53.79
6530;BME280;3298;42.688;23.366;2023-02-04T08:19:00;51766.22;;;-145.06;53.90
6530;BME280;3298;42.688;23.366;2023-02-04T08:21:26;51753.94;;;-145.06;53.92
6530;BME280;3298;42.688;23.366;2023-02-04T08:23:53;51782.59;;;-145.06;54.22
6530;BME280;3298;42.688;23.366;2023-02-04T08:26:22;51825.56;;;-145.06;54.06
6530;BME280;3298;42.688;23.366;2023-02-04T08:28:49;51770.31;;;-145.06;54.50
6530;BME280;3298;42.688;23.366;2023-02-04T08:31:15;51768.25;;;-145.06;54.76
6530;BME280;3298;42.688;23.366;2023-02-04T08:33:42;51753.94;;;-145.06;55.19
6530;BME280;3298;42.688;23.366;2023-02-04T08:36:09;51766.22;;;-145.06;55.19
6530;BME280;3298;42.688;23.366;2023-02-04T08:38:36;51766.22;;;-145.06;55.60
6530;BME280;3298;42.688;23.366;2023-02-04T08:41:03;51741.66;;;-145.06;55.51
6530;BME280;3298;42.688;23.366;2023-02-04T08:43:31;51774.41;;;-145.06;55.99
6530;BME280;3298;42.688;23.366;2023-02-04T08:45:58;51747.78;;;-145.06;56.55
6530;BME280;3298;42.688;23.366;2023-02-04T08:48:25;51772.34;;;-145.06;55.74
6530;BME280;3298;42.688;23.366;2023-02-04T08:50:51;51749.84;;;-145.06;56.16
6530;BME280;3298;42.688;23.366;2023-02-04T08:53:18;51788.72;;;-145.06;56.42
6530;BME280;3298;42.688;23.366;2023-02-04T08:55:45;51766.22;;;-145.06;56.21
6530;BME280;3298;42.688;23.366;2023-02-04T08:58:12;51782.59;;;-145.06;56.32
6530;BME280;3298;42.688;23.366;2023-02-04T09:00:40;51762.13;;;-145.06;56.46
6530;BME280;3298;42.688;23.366;2023-02-04T09:03:07;51770.31;;;-145.06;57.08
6530;BME280;3298;42.688;23.366;2023-02-04T09:05:33;51788.72;;;-145.06;57.58
6530;BME280;3298;42.688;23.366;2023-02-04T09:08:00;51743.69;;;-145.06;57.92
6530;BME280;3298;42.688;23.366;2023-02-04T09:10:27;51766.22;;;-145.06;58.17
6530;BME280;3298;42.688;23.366;2023-02-04T09:12:54;51778.50;;;-145.06;58.40
6530;BME280;3298;42.688;23.366;2023-02-04T09:15:22;51753.94;;;-145.06;58.35
6530;BME280;3298;42.688;23.366;2023-02-04T09:17:50;51778.50;;;-145.06;57.99
6530;BME280;3298;42.688;23.366;2023-02-04T09:20:18;51782.59;;;-145.06;57.41
6530;BME280;3298;42.688;23.366;2023-02-04T09:22:45;51762.13;;;-145.06;57.76
6530;BME280;3298;42.688;23.366;2023-02-04T09:25:12;51768.25;;;-145.06;56.87
6530;BME280;3298;42.688;23.366;2023-02-04T09:27:39;51794.88;;;-145.06;56.10
6530;BME280;3298;42.688;23.366;2023-02-04T09:30:07;51745.75;;;-145.06;55.96
6530;BME280;3298;42.688;23.366;2023-02-04T09:32:34;51778.50;;;-145.06;56.01
6530;BME280;3298;42.688;23.366;2023-02-04T09:35:02;51762.13;;;-145.06;55.49
6530;BME280;3298;42.688;23.366;2023-02-04T09:37:29;51751.88;;;-145.06;56.09
6530;BME280;3298;42.688;23.366;2023-02-04T09:39:56;51782.59;;;-145.06;56.14
6530;BME280;3298;42.688;23.366;2023-02-04T09:42:24;51772.34;;;-145.06;57.37
6530;BME280;3298;42.688;23.366;2023-02-04T09:44:51;51753.94;;;-145.06;59.46
6530;BME280;3298;42.688;23.366;2023-02-04T09:47:21;51766.22;;;-145.06;61.96
6530;BME280;3298;42.688;23.366;2023-02-04T09:49:49;51735.50;;;-145.06;63.77
6530;BME280;3298;42.688;23.366;2023-02-04T09:52:17;51753.94;;;-145.06;65.05
6530;BME280;3298;42.688;23.366;2023-02-04T09:54:45;51772.34;;;-145.06;66.54
6530;BME280;3298;42.688;23.366;2023-02-04T09:57:14;51764.16;;;-145.06;66.02
6530;BME280;3298;42.688;23.366;2023-02-04T09:59:43;51758.03;;;-145.06;65.99
6530;BME280;3298;42.688;23.366;2023-02-04T10:02:19;51778.50;;;-145.06;65.96
6530;BME280;3298;42.688;23.366;2023-02-04T10:04:47;51758.03;;;-145.06;66.40
6530;BME280;3298;42.688;23.366;2023-02-04T10:07:18;51770.31;;;-145.06;67.53
6530;BME280;3298;42.688;23.366;2023-02-04T10:09:50;51753.94;;;-145.06;66.53
6530;BME280;3298;42.688;23.366;2023-02-04T10:12:18;51782.59;;;-145.06;65.91
6530;BME280;3298;42.688;23.366;2023-02-04T10:14:45;51803.06;;;-145.06;65.46
6530;BME280;3298;42.688;23.366;2023-02-04T10:17:18;51772.34;;;-145.06;65.99
6530;BME280;3298;42.688;23.366;2023-02-04T10:19:45;51753.94;;;-145.06;65.54
6530;BME280;3298;42.688;23.366;2023-02-04T10:22:16;51743.69;;;-145.06;64.66
6530;BME280;3298;42.688;23.366;2023-02-04T10:24:45;51778.50;;;-145.06;65.11
6530;BME280;3298;42.688;23.366;2023-02-04T10:27:12;51786.69;;;-145.06;64.94
6530;BME280;3298;42.688;23.366;2023-02-04T10:29:42;51753.94;;;-145.06;64.24
6530;BME280;3298;42.688;23.366;2023-02-04T10:32:26;51766.22;;;-145.06;64.47
6530;BME280;3298;42.688;23.366;2023-02-04T10:34:56;51766.22;;;-145.06;64.05
6530;BME280;3298;42.688;23.366;2023-02-04T10:37:24;51768.25;;;-145.06;63.63
6530;BME280;3298;42.688;23.366;2023-02-04T10:39:52;51770.31;;;-145.06;64.50
6530;BME280;3298;42.688;23.366;2023-02-04T10:42:21;51776.44;;;-145.06;65.63
6530;BME280;3298;42.688;23.366;2023-02-04T10:44:48;51762.13;;;-145.06;66.81
6530;BME280;3298;42.688;23.366;2023-02-04T10:47:17;51798.97;;;-145.06;67.31
6530;BME280;3298;42.688;23.366;2023-02-04T10:49:52;51758.03;;;-145.06;67.66
6530;BME280;3298;42.688;23.366;2023-02-04T10:52:21;51770.31;;;-145.06;69.19
6530;BME280;3298;42.688;23.366;2023-02-04T10:54:50;51786.69;;;-145.06;69.33
6530;BME280;3298;42.688;23.366;2023-02-04T10:57:20;51768.25;;;-145.06;69.56
6530;BME280;3298;42.688;23.366;2023-02-04T10:59:49;51751.88;;;-145.06;68.81
6530;BME280;3298;42.688;23.366;2023-02-04T11:02:41;51755.97;;;-145.06;69.02
6530;BME280;3298;42.688;23.366;2023-02-04T11:05:15;51770.31;;;-145.06;70.02
6530;BME280;3298;42.688;23.366;2023-02-04T11:07:44;51772.34;;;-145.06;69.59
6530;BME280;3298;42.688;23.366;2023-02-04T11:10:13;51760.06;;;-145.06;69.88
6530;BME280;3298;42.688;23.366;2023-02-04T11:12:44;51753.94;;;-145.06;69.08
6530;BME280;3298;42.688;23.366;2023-02-04T11:15:37;51784.63;;;-145.06;68.92
6530;BME280;3298;42.688;23.366;2023-02-04T11:18:06;51778.50;;;-145.06;68.37
6530;BME280;3298;42.688;23.366;2023-02-04T11:20:34;51790.78;;;-145.06;67.69
6530;BME280;3298;42.688;23.366;2023-02-04T11:23:28;51782.59;;;-145.06;66.91
6530;BME280;3298;42.688;23.366;2023-02-04T11:26:13;51758.03;;;-145.06;65.51
6530;BME280;3298;42.688;23.366;2023-02-04T11:29:20;51782.59;;;-145.06;66.24
6530;BME280;3298;42.688;23.366;2023-02-04T11:31:58;51784.63;;;-145.06;66.03
6530;BME280;3298;42.688;23.366;2023-02-04T11:34:31;51786.69;;;-145.06;66.71
6530;BME280;3298;42.688;23.366;2023-02-04T11:37:14;51766.22;;;-145.06;66.92
6530;BME280;3298;42.688;23.366;2023-02-04T11:39:43;51788.72;;;-145.06;68.51
6530;BME280;3298;42.688;23.366;2023-02-04T11:42:20;51755.97;;;-145.06;67.92
6530;BME280;3298;42.688;23.366;2023-02-04T11:44:58;51770.31;;;-145.06;68.03
6530;BME280;3298;42.688;23.366;2023-02-04T11:47:26;51803.06;;;-145.06;68.18
6530;BME280;3298;42.688;23.366;2023-02-04T11:49:55;51788.72;;;-145.06;68.84
6530;BME280;3298;42.688;23.366;2023-02-04T11:52:23;51760.06;;;-145.06;69.69
6530;BME280;3298;42.688;23.366;2023-02-04T11:54:53;51762.13;;;-145.06;69.80
6530;BME280;3298;42.688;23.366;2023-02-04T11:57:20;51758.03;;;-145.06;69.83
6530;BME280;3298;42.688;23.366;2023-02-04T11:59:47;51768.25;;;-145.06;69.27
6530;BME280;3298;42.688;23.366;2023-02-04T12:02:18;51780.53;;;-145.06;69.07
6530;BME280;3298;42.688;23.366;2023-02-04T12:04:53;51778.50;;;-145.06;69.07
6530;BME280;3298;42.688;23.366;2023-02-04T12:07:24;51792.81;;;-145.06;68.89
6530;BME280;3298;42.688;23.366;2023-02-04T12:09:51;51786.69;;;-145.06;69.83
6530;BME280;3298;42.688;23.366;2023-02-04T12:12:29;51776.44;;;-145.06;70.56
6530;BME280;3298;42.688;23.366;2023-02-04T12:15:00;51774.41;;;-145.06;70.62
6530;BME280;3298;42.688;23.366;2023-02-04T12:17:29;51805.09;;;-145.06;71.15
6530;BME280;3298;42.688;23.366;2023-02-04T12:19:56;51794.88;;;-145.06;71.42
6530;BME280;3298;42.688;23.366;2023-02-04T12:22:22;51766.22;;;-145.06;72.00
6530;BME280;3298;42.688;23.366;2023-02-04T12:24:49;51782.59;;;-145.06;72.74
6530;BME280;3298;42.688;23.366;2023-02-04T12:27:17;51764.16;;;-145.06;73.38
6530;BME280;3298;42.688;23.366;2023-02-04T12:29:44;51753.94;;;-145.06;74.22
6530;BME280;3298;42.688;23.366;2023-02-04T12:32:10;51764.16;;;-145.06;74.28
6530;BME280;3298;42.688;23.366;2023-02-04T12:34:38;51749.84;;;-145.06;74.98
6530;BME280;3298;42.688;23.366;2023-02-04T12:37:05;51801.00;;;-145.06;74.09
6530;BME280;3298;42.688;23.366;2023-02-04T12:39:32;51780.53;;;-145.06;73.91
6530;BME280;3298;42.688;23.366;2023-02-04T12:41:59;51768.25;;;-145.06;73.87
6530;BME280;3298;42.688;23.366;2023-02-04T12:44:26;51798.97;;;-145.06;74.14
6530;BME280;3298;42.688;23.366;2023-02-04T12:46:53;51796.91;;;-145.06;75.01
6530;BME280;3298;42.688;23.366;2023-02-04T12:49:20;51805.09;;;-145.06;73.32
6530;BME280;3298;42.688;23.366;2023-02-04T12:51:50;51784.63;;;-145.06;73.30
6530;BME280;3298;42.688;23.366;2023-02-04T12:54:17;51768.25;;;-145.06;72.34
6530;BME280;3298;42.688;23.366;2023-02-04T12:56:44;51798.97;;;-145.06;72.76